Aberdeen, United Kingdom

8:08 PM BST on October 25, 2014 (GMT +0100)
Brigde of Don | Change Station
CLOSE
Current Station
Personal Weather Station
Location: Aberdeen, SCOTLAND
Elevation: 233 ft
Nearby Weather Stations

Elev 233 ft 57.20 °N, 2.13 °W | Updated 1 second ago

Partly Cloudy
Partly Cloudy
50.5 °F
Feels Like 50.5 °F
N
7.0
Wind Variable Wind from SW
Gusts 16.0 mph

Today
High -- | Low -- °F
--% Chance of Precip.
Yesterday
High -- | Low -- °F
Precip. -- in
8:03 AM 5:40 PM
Waxing Crescent, 4% visible
Pressure 29.56 in
Visibility 6.2 miles
Clouds Few 4100 ft
Dew Point 44 °F
Humidity 79%
Rainfall 0.00 in
Snow Depth Not available.
UV 0 out of 12
Pollen Not available.
Air Quality Not available.
Flu Activity Not available.
METAR EGPD 251850Z 21013KT 9999 FEW041 11/06 Q1001 NOSIG

More Conditions Fewer Conditions

Pressure 29.56 in
Visibility 6.2 miles
Clouds Few 4100 ft
Dew Point 44 °F
Humidity 79%
Rainfall 0.00 in
Snow Depth Not available.
UV 0 out of 12
Pollen Not available.
Air Quality Not available.
Flu Activity Not available.
METAR EGPD 251850Z 21013KT 9999 FEW041 11/06 Q1001 NOSIG

More Conditions Fewer Conditions

10-Day Weather Forecast

Almanac

Astronomy

Oct. 25, 2014 Rise Set
Actual Time 8:03 AM BST 5:40 PM BST
Civil Twilight 7:23 AM BST 6:20 PM BST
Nautical Twilight 6:39 AM BST 7:05 PM BST
Astronomical Twilight 5:54 AM BST 7:49 PM BST
Moon 9:42 AM BST 6:36 PM BST
Length of Visible Light 10h 56m
Length of Day
9h 36m
Tomorrow will be 4m 40s shorter.
Waxing Crescent, 4% of the Moon is Illuminated
Today
Waxing Crescent
Oct 30
First Quarter
Nov 6
Full
Nov 14
Last Quarter
Nov 22
New

Today's Extremes

Country Highs Country Lows

Community

WunderPhotos

Upload Photos

1,764,958 photos uploaded!

Nearby

Snow Depth

Not available.

Earthquake Activity

City Distance Mag. Time & Date
No recent earthquake activity has been reported nearby.
Minimum magnitude displayed is 2.5.

Coastal Water Temperatures

Place Temperature
No Stations Reporting

Nearby Weather Stations